sensor_id;sensor_type;location;lat;lon;timestamp;pressure;altitude;pressure_sealevel;temperature;humidity
67377;BME280;54261;46.086;6.588;2024-02-23T00:02:20;91228.66;;;-0.29;67.18
67377;BME280;54261;46.086;6.588;2024-02-23T00:07:22;91223.16;;;-0.87;71.22
67377;BME280;54261;46.086;6.588;2024-02-23T00:12:24;91224.69;;;0.99;62.31
67377;BME280;54261;46.086;6.588;2024-02-23T00:17:26;91213.69;;;-1.28;67.34
67377;BME280;54261;46.086;6.588;2024-02-23T00:22:28;91211.56;;;-0.61;64.36
67377;BME280;54261;46.086;6.588;2024-02-23T00:27:29;91217.16;;;0.54;70.54
67377;BME280;54261;46.086;6.588;2024-02-23T00:32:31;91219.00;;;-0.98;65.84
67377;BME280;54261;46.086;6.588;2024-02-23T00:37:34;91210.53;;;-4.17;78.55
67377;BME280;54261;46.086;6.588;2024-02-23T00:42:37;91215.34;;;-3.78;77.16
67377;BME280;54261;46.086;6.588;2024-02-23T00:47:38;91220.66;;;-2.95;73.95
67377;BME280;54261;46.086;6.588;2024-02-23T00:52:41;91226.38;;;-2.67;76.56
67377;BME280;54261;46.086;6.588;2024-02-23T00:57:43;91217.69;;;-3.86;76.59
67377;BME280;54261;46.086;6.588;2024-02-23T01:02:44;91200.69;;;-3.58;77.19
67377;BME280;54261;46.086;6.588;2024-02-23T01:07:46;91195.25;;;-2.18;68.57
67377;BME280;54261;46.086;6.588;2024-02-23T01:12:48;91208.22;;;-1.31;68.38
67377;BME280;54261;46.086;6.588;2024-02-23T01:17:50;91188.38;;;-3.21;76.36
67377;BME280;54261;46.086;6.588;2024-02-23T01:22:52;91176.53;;;-2.11;73.73
67377;BME280;54261;46.086;6.588;2024-02-23T01:27:54;91160.25;;;-0.69;68.38
67377;BME280;54261;46.086;6.588;2024-02-23T01:32:56;91142.50;;;0.81;64.55
67377;BME280;54261;46.086;6.588;2024-02-23T01:37:58;91113.94;;;0.50;60.12
67377;BME280;54261;46.086;6.588;2024-02-23T01:43:09;91132.44;;;-0.32;67.54
67377;BME280;54261;46.086;6.588;2024-02-23T01:48:11;91101.00;;;0.29;59.30
67377;BME280;54261;46.086;6.588;2024-02-23T01:53:13;91109.16;;;0.14;59.26
67377;BME280;54261;46.086;6.588;2024-02-23T01:58:15;91111.28;;;0.31;60.93
67377;BME280;54261;46.086;6.588;2024-02-23T02:03:17;91091.97;;;1.02;60.61
67377;BME280;54261;46.086;6.588;2024-02-23T02:08:19;91067.03;;;1.50;57.91
67377;BME280;54261;46.086;6.588;2024-02-23T02:13:22;91040.16;;;-1.24;63.51
67377;BME280;54261;46.086;6.588;2024-02-23T02:18:23;91039.09;;;-1.23;62.83
67377;BME280;54261;46.086;6.588;2024-02-23T02:23:25;91048.03;;;-2.68;70.65
67377;BME280;54261;46.086;6.588;2024-02-23T02:28:30;91053.94;;;-1.97;67.95
67377;BME280;54261;46.086;6.588;2024-02-23T02:33:32;91056.56;;;-1.62;67.65
67377;BME280;54261;46.086;6.588;2024-02-23T02:38:34;91045.28;;;-1.68;70.27
67377;BME280;54261;46.086;6.588;2024-02-23T02:43:36;91023.41;;;-0.85;67.69
67377;BME280;54261;46.086;6.588;2024-02-23T02:48:38;91007.06;;;-1.30;64.02
67377;BME280;54261;46.086;6.588;2024-02-23T02:53:40;91013.06;;;-1.84;66.83
67377;BME280;54261;46.086;6.588;2024-02-23T02:58:42;91012.69;;;-0.69;62.59
67377;BME280;54261;46.086;6.588;2024-02-23T03:03:44;90998.75;;;-0.94;63.37
67377;BME280;54261;46.086;6.588;2024-02-23T03:08:45;90981.41;;;-0.57;60.61
67377;BME280;54261;46.086;6.588;2024-02-23T03:13:47;90986.41;;;-1.72;67.06
67377;BME280;54261;46.086;6.588;2024-02-23T03:18:49;90983.28;;;-1.25;69.51
67377;BME280;54261;46.086;6.588;2024-02-23T03:23:52;90964.69;;;-2.57;68.88
67377;BME280;54261;46.086;6.588;2024-02-23T03:28:53;90961.44;;;-2.89;73.52
67377;BME280;54261;46.086;6.588;2024-02-23T03:33:56;90954.06;;;-2.82;73.33
67377;BME280;54261;46.086;6.588;2024-02-23T03:38:58;90932.75;;;-1.76;66.62
67377;BME280;54261;46.086;6.588;2024-02-23T03:43:59;90942.03;;;-1.84;64.25
67377;BME280;54261;46.086;6.588;2024-02-23T03:49:02;90939.19;;;-1.14;64.06
67377;BME280;54261;46.086;6.588;2024-02-23T03:54:03;90949.34;;;-2.45;66.10
67377;BME280;54261;46.086;6.588;2024-02-23T03:59:05;90927.00;;;-0.86;66.62
67377;BME280;54261;46.086;6.588;2024-02-23T04:04:07;90925.13;;;-1.04;64.30
67377;BME280;54261;46.086;6.588;2024-02-23T04:09:09;90933.22;;;-0.57;62.82
67377;BME280;54261;46.086;6.588;2024-02-23T04:14:11;90918.28;;;-1.25;59.43
67377;BME280;54261;46.086;6.588;2024-02-23T04:19:13;90926.34;;;-0.97;61.81
67377;BME280;54261;46.086;6.588;2024-02-23T04:24:15;90927.06;;;-0.91;57.92
67377;BME280;54261;46.086;6.588;2024-02-23T04:29:17;90913.59;;;-0.51;60.27
67377;BME280;54261;46.086;6.588;2024-02-23T04:34:19;90898.63;;;-0.03;58.17
67377;BME280;54261;46.086;6.588;2024-02-23T04:39:22;90903.84;;;-0.17;57.38
67377;BME280;54261;46.086;6.588;2024-02-23T04:44:24;90915.88;;;-0.44;56.88
67377;BME280;54261;46.086;6.588;2024-02-23T04:49:26;90902.06;;;-0.55;55.85
67377;BME280;54261;46.086;6.588;2024-02-23T04:54:28;90904.97;;;-0.57;57.51
67377;BME280;54261;46.086;6.588;2024-02-23T04:59:30;90909.81;;;-1.02;57.35
67377;BME280;54261;46.086;6.588;2024-02-23T05:04:34;90899.75;;;-0.24;56.79
67377;BME280;54261;46.086;6.588;2024-02-23T05:09:35;90902.56;;;-0.72;57.23
67377;BME280;54261;46.086;6.588;2024-02-23T05:14:37;90893.66;;;-0.57;56.83
67377;BME280;54261;46.086;6.588;2024-02-23T05:19:39;90889.00;;;-1.23;58.53
67377;BME280;54261;46.086;6.588;2024-02-23T05:24:41;90895.38;;;-0.47;56.82
67377;BME280;54261;46.086;6.588;2024-02-23T05:29:43;90886.91;;;0.03;56.00
67377;BME280;54261;46.086;6.588;2024-02-23T05:34:45;90871.13;;;-0.16;53.88
67377;BME280;54261;46.086;6.588;2024-02-23T05:39:47;90890.84;;;-0.47;57.19
67377;BME280;54261;46.086;6.588;2024-02-23T05:44:48;90887.19;;;-0.84;58.90
67377;BME280;54261;46.086;6.588;2024-02-23T05:49:50;90896.84;;;-0.60;54.74
67377;BME280;54261;46.086;6.588;2024-02-23T05:54:52;90887.84;;;-0.40;56.23
67377;BME280;54261;46.086;6.588;2024-02-23T05:59:57;90874.56;;;-1.06;56.77
67377;BME280;54261;46.086;6.588;2024-02-23T06:04:59;90881.00;;;-0.94;58.73
67377;BME280;54261;46.086;6.588;2024-02-23T06:10:01;90886.53;;;-0.95;61.67
67377;BME280;54261;46.086;6.588;2024-02-23T06:15:03;90887.06;;;-1.12;55.09
67377;BME280;54261;46.086;6.588;2024-02-23T06:20:06;90900.38;;;-0.65;57.72
67377;BME280;54261;46.086;6.588;2024-02-23T06:25:09;90905.41;;;-2.74;64.81
67377;BME280;54261;46.086;6.588;2024-02-23T06:30:12;90905.34;;;-1.02;58.70
67377;BME280;54261;46.086;6.588;2024-02-23T06:35:14;90898.22;;;-1.01;57.25
67377;BME280;54261;46.086;6.588;2024-02-23T06:40:16;90892.81;;;-0.91;59.51
67377;BME280;54261;46.086;6.588;2024-02-23T06:45:18;90899.22;;;-0.59;57.04
67377;BME280;54261;46.086;6.588;2024-02-23T06:50:20;90907.22;;;-0.64;57.46
67377;BME280;54261;46.086;6.588;2024-02-23T06:55:23;90913.09;;;-1.11;58.29
67377;BME280;54261;46.086;6.588;2024-02-23T07:00:25;90917.13;;;-2.26;61.51
67377;BME280;54261;46.086;6.588;2024-02-23T07:05:27;90920.44;;;-0.88;56.79
67377;BME280;54261;46.086;6.588;2024-02-23T07:10:29;90917.03;;;-0.89;56.27
67377;BME280;54261;46.086;6.588;2024-02-23T07:15:30;90920.97;;;-1.11;56.67
67377;BME280;54261;46.086;6.588;2024-02-23T07:20:35;90921.81;;;-1.88;61.69
67377;BME280;54261;46.086;6.588;2024-02-23T07:25:38;90918.69;;;-2.60;64.54
67377;BME280;54261;46.086;6.588;2024-02-23T07:30:40;90910.78;;;-1.90;61.15
67377;BME280;54261;46.086;6.588;2024-02-23T07:35:42;90916.00;;;-2.50;64.86
67377;BME280;54261;46.086;6.588;2024-02-23T07:40:44;90899.13;;;-2.78;67.42
67377;BME280;54261;46.086;6.588;2024-02-23T07:45:46;90911.72;;;-2.05;60.65
67377;BME280;54261;46.086;6.588;2024-02-23T07:50:48;90920.00;;;-1.15;64.44
67377;BME280;54261;46.086;6.588;2024-02-23T07:55:50;90916.97;;;-1.76;59.84
67377;BME280;54261;46.086;6.588;2024-02-23T08:00:52;90911.25;;;-1.34;63.90
67377;BME280;54261;46.086;6.588;2024-02-23T08:05:54;90919.41;;;-1.80;60.39
67377;BME280;54261;46.086;6.588;2024-02-23T08:10:56;90905.25;;;-1.40;63.01
67377;BME280;54261;46.086;6.588;2024-02-23T08:15:58;90904.34;;;-0.87;60.89
67377;BME280;54261;46.086;6.588;2024-02-23T08:21:00;90904.03;;;-3.72;71.70
67377;BME280;54261;46.086;6.588;2024-02-23T08:26:04;90893.59;;;-3.77;69.84
67377;BME280;54261;46.086;6.588;2024-02-23T08:31:06;90898.53;;;-3.10;67.68
67377;BME280;54261;46.086;6.588;2024-02-23T08:36:08;90901.47;;;-3.87;72.05
67377;BME280;54261;46.086;6.588;2024-02-23T08:41:10;90896.66;;;-3.04;65.76
67377;BME280;54261;46.086;6.588;2024-02-23T08:46:12;90903.91;;;0.58;61.90
67377;BME280;54261;46.086;6.588;2024-02-23T08:51:14;90905.56;;;-1.42;65.33
67377;BME280;54261;46.086;6.588;2024-02-23T08:56:17;90883.94;;;-2.17;69.86
67377;BME280;54261;46.086;6.588;2024-02-23T09:01:19;90908.75;;;-0.11;61.65
67377;BME280;54261;46.086;6.588;2024-02-23T09:06:21;90904.47;;;0.69;63.36
67377;BME280;54261;46.086;6.588;2024-02-23T09:26:48;90900.59;;;0.05;64.96
67377;BME280;54261;46.086;6.588;2024-02-23T09:31:50;90894.13;;;4.15;53.93
67377;BME280;54261;46.086;6.588;2024-02-23T09:36:53;90892.81;;;4.30;49.00
67377;BME280;54261;46.086;6.588;2024-02-23T09:41:55;90896.31;;;4.61;51.34
67377;BME280;54261;46.086;6.588;2024-02-23T09:46:59;90892.47;;;5.18;49.15
67377;BME280;54261;46.086;6.588;2024-02-23T09:52:02;90877.38;;;5.01;49.29
67377;BME280;54261;46.086;6.588;2024-02-23T09:57:07;90877.94;;;5.16;50.53
67377;BME280;54261;46.086;6.588;2024-02-23T10:02:16;90871.13;;;12.39;35.13
67377;BME280;54261;46.086;6.588;2024-02-23T10:07:18;90879.28;;;8.95;40.11
67377;BME280;54261;46.086;6.588;2024-02-23T10:12:21;90848.31;;;6.36;45.32
67377;BME280;54261;46.086;6.588;2024-02-23T10:17:23;90849.41;;;5.25;49.43
67377;BME280;54261;46.086;6.588;2024-02-23T10:22:25;90877.06;;;11.60;35.57
67377;BME280;54261;46.086;6.588;2024-02-23T10:27:27;90850.53;;;6.34;42.86
67377;BME280;54261;46.086;6.588;2024-02-23T10:32:29;90857.38;;;9.57;35.86
67377;BME280;54261;46.086;6.588;2024-02-23T10:37:34;90840.78;;;5.71;44.77
67377;BME280;54261;46.086;6.588;2024-02-23T10:42:37;90848.19;;;8.90;39.41
67377;BME280;54261;46.086;6.588;2024-02-23T10:47:39;90836.31;;;8.88;35.93
67377;BME280;54261;46.086;6.588;2024-02-23T10:52:42;90826.72;;;6.04;46.03
67377;BME280;54261;46.086;6.588;2024-02-23T10:57:45;90825.47;;;4.35;49.89
67377;BME280;54261;46.086;6.588;2024-02-23T11:02:51;90823.97;;;5.15;45.35
67377;BME280;54261;46.086;6.588;2024-02-23T11:07:58;90820.38;;;17.16;26.87
67377;BME280;54261;46.086;6.588;2024-02-23T11:13:00;90835.94;;;8.41;35.37
67377;BME280;54261;46.086;6.588;2024-02-23T11:18:02;90819.06;;;4.36;44.25
67377;BME280;54261;46.086;6.588;2024-02-23T11:23:13;90824.34;;;3.79;50.36
67377;BME280;54261;46.086;6.588;2024-02-23T11:28:24;90826.38;;;6.05;44.90
67377;BME280;54261;46.086;6.588;2024-02-23T11:33:26;90817.97;;;11.64;31.55
67377;BME280;54261;46.086;6.588;2024-02-23T11:38:29;90813.72;;;4.75;43.08
67377;BME280;54261;46.086;6.588;2024-02-23T11:43:34;90821.25;;;6.96;38.76
67377;BME280;54261;46.086;6.588;2024-02-23T11:48:36;90816.44;;;7.27;35.51
67377;BME280;54261;46.086;6.588;2024-02-23T11:53:39;90812.44;;;5.87;40.85
67377;BME280;54261;46.086;6.588;2024-02-23T11:58:41;90799.41;;;11.52;28.77
67377;BME280;54261;46.086;6.588;2024-02-23T12:03:43;90784.09;;;6.04;40.95
67377;BME280;54261;46.086;6.588;2024-02-23T12:08:46;90782.47;;;2.44;44.60
67377;BME280;54261;46.086;6.588;2024-02-23T12:13:48;90782.66;;;2.56;44.79
67377;BME280;54261;46.086;6.588;2024-02-23T12:18:53;90775.25;;;2.94;39.53
67377;BME280;54261;46.086;6.588;2024-02-23T12:23:57;90764.31;;;3.57;42.78
67377;BME280;54261;46.086;6.588;2024-02-23T12:29:02;90758.38;;;2.63;46.05
67377;BME280;54261;46.086;6.588;2024-02-23T12:34:05;90723.88;;;3.42;44.68
67377;BME280;54261;46.086;6.588;2024-02-23T12:39:07;90737.09;;;3.69;41.23
67377;BME280;54261;46.086;6.588;2024-02-23T12:44:09;90737.38;;;8.07;34.89
67377;BME280;54261;46.086;6.588;2024-02-23T12:49:11;90739.28;;;6.43;35.96
67377;BME280;54261;46.086;6.588;2024-02-23T12:54:13;90731.19;;;4.50;36.74
67377;BME280;54261;46.086;6.588;2024-02-23T12:59:15;90730.81;;;8.05;33.09
67377;BME280;54261;46.086;6.588;2024-02-23T13:04:17;90731.13;;;6.89;33.09
67377;BME280;54261;46.086;6.588;2024-02-23T13:09:18;90731.19;;;6.64;35.39
67377;BME280;54261;46.086;6.588;2024-02-23T13:14:20;90717.41;;;4.99;37.26
67377;BME280;54261;46.086;6.588;2024-02-23T13:19:22;90717.75;;;3.68;36.79
67377;BME280;54261;46.086;6.588;2024-02-23T13:24:24;90725.81;;;2.89;38.13
67377;BME280;54261;46.086;6.588;2024-02-23T13:29:26;90719.72;;;5.22;33.29
67377;BME280;54261;46.086;6.588;2024-02-23T13:34:29;90720.84;;;6.50;33.35
67377;BME280;54261;46.086;6.588;2024-02-23T13:39:31;90714.66;;;4.65;33.51
67377;BME280;54261;46.086;6.588;2024-02-23T13:44:34;90717.69;;;2.50;36.70
67377;BME280;54261;46.086;6.588;2024-02-23T13:49:36;90718.19;;;2.61;35.59
67377;BME280;54261;46.086;6.588;2024-02-23T13:54:38;90705.84;;;3.18;35.74
67377;BME280;54261;46.086;6.588;2024-02-23T13:59:39;90708.41;;;6.05;35.18
67377;BME280;54261;46.086;6.588;2024-02-23T14:04:41;90711.47;;;11.14;25.75
67377;BME280;54261;46.086;6.588;2024-02-23T14:09:43;90689.22;;;6.24;33.12
67377;BME280;54261;46.086;6.588;2024-02-23T14:14:45;90692.22;;;3.94;36.57
67377;BME280;54261;46.086;6.588;2024-02-23T14:19:47;90712.31;;;3.65;36.55
67377;BME280;54261;46.086;6.588;2024-02-23T14:24:49;90701.50;;;2.96;39.38
67377;BME280;54261;46.086;6.588;2024-02-23T14:29:51;90703.22;;;2.92;37.19
67377;BME280;54261;46.086;6.588;2024-02-23T14:34:54;90695.78;;;3.59;37.71
67377;BME280;54261;46.086;6.588;2024-02-23T14:39:57;90700.03;;;3.51;37.79
67377;BME280;54261;46.086;6.588;2024-02-23T14:44:59;90710.09;;;2.84;38.02
67377;BME280;54261;46.086;6.588;2024-02-23T14:50:01;90703.06;;;4.19;36.53
67377;BME280;54261;46.086;6.588;2024-02-23T14:55:04;90683.84;;;4.22;35.33
67377;BME280;54261;46.086;6.588;2024-02-23T15:00:06;90675.75;;;4.39;34.80
